createdAt,value
2018-12-05T00:05:21.283Z,2.60
2018-12-05T00:15:26.327Z,2.47
2018-12-05T00:25:31.740Z,2.00
2018-12-05T00:35:36.620Z,2.30
2018-12-05T00:45:41.597Z,2.03
2018-12-05T00:55:46.478Z,1.97
2018-12-05T01:05:51.600Z,1.90
2018-12-05T01:15:56.358Z,2.17
2018-12-05T01:26:01.301Z,2.00
2018-12-05T01:36:06.727Z,1.70
2018-12-05T01:46:11.313Z,1.70
2018-12-05T01:56:16.067Z,1.70
2018-12-05T02:06:20.615Z,1.93
2018-12-05T02:16:25.666Z,1.70
2018-12-05T02:26:30.402Z,1.77
2018-12-05T02:36:36.022Z,1.70
2018-12-05T02:46:40.808Z,1.73
2018-12-05T02:56:45.552Z,1.90
2018-12-05T03:06:50.165Z,1.30
2018-12-05T03:16:54.941Z,1.50
2018-12-05T03:26:59.631Z,1.30
2018-12-05T03:37:04.621Z,1.50
2018-12-05T03:47:09.809Z,1.37
2018-12-05T03:57:14.502Z,1.60
2018-12-05T04:07:19.195Z,1.40
2018-12-05T04:17:23.917Z,1.33
2018-12-05T04:27:28.613Z,1.10
2018-12-05T04:37:33.362Z,1.20
2018-12-05T04:47:38.216Z,1.30
2018-12-05T04:57:43.267Z,1.40
2018-12-05T05:07:47.934Z,1.30
2018-12-05T05:17:52.613Z,1.10
2018-12-05T05:27:57.229Z,1.20
2018-12-05T05:38:01.932Z,1.23
2018-12-05T05:48:06.882Z,1.13
2018-12-05T05:58:11.493Z,1.30
2018-12-05T06:08:16.083Z,1.20
2018-12-05T06:18:20.698Z,1.10
2018-12-05T06:28:25.457Z,0.93
2018-12-05T06:38:30.457Z,1.00
2018-12-05T06:48:35.201Z,1.10
2018-12-05T06:58:40.203Z,1.10
2018-12-05T07:08:44.986Z,1.00
2018-12-05T07:18:49.768Z,1.30
2018-12-05T07:28:54.870Z,1.00
2018-12-05T07:38:59.530Z,1.10
2018-12-05T07:49:04.658Z,1.07
2018-12-05T07:59:09.411Z,1.20
2018-12-05T08:09:14.138Z,8.50
2018-12-05T08:19:19.156Z,5.80
2018-12-05T08:29:24.004Z,5.30
2018-12-05T08:39:28.621Z,5.07
2018-12-05T08:49:33.418Z,5.70
2018-12-05T08:59:38.063Z,4.83
2018-12-05T09:09:42.650Z,3.90
2018-12-05T09:19:47.452Z,4.57
2018-12-05T09:29:53.036Z,4.13
2018-12-05T09:39:58.652Z,4.70
2018-12-05T09:50:03.442Z,5.60
2018-12-05T10:00:10.495Z,4.67
2018-12-05T10:10:15.222Z,4.60
2018-12-05T10:20:20.076Z,4.53
2018-12-05T10:30:25.387Z,4.27
2018-12-05T10:40:30.802Z,5.03
2018-12-05T10:50:35.546Z,5.53
2018-12-05T11:00:46.374Z,5.00
2018-12-05T11:11:03.495Z,4.97
2018-12-05T11:21:13.924Z,4.87
2018-12-05T11:31:18.838Z,5.40
2018-12-05T11:41:23.573Z,6.07
2018-12-05T11:51:28.375Z,5.10
2018-12-05T12:01:33.046Z,4.90
2018-12-05T12:11:38.809Z,5.20
2018-12-05T12:21:44.959Z,5.17
2018-12-05T12:31:49.560Z,5.23
2018-12-05T12:41:54.472Z,5.47
2018-12-05T12:51:59.199Z,4.40
2018-12-05T13:02:03.749Z,4.13
2018-12-05T13:12:08.720Z,5.20
2018-12-05T13:22:13.539Z,4.70
2018-12-05T13:32:18.714Z,5.70
2018-12-05T13:42:23.469Z,5.27
2018-12-05T13:52:32.013Z,4.40
2018-12-05T14:02:37.821Z,4.37
2018-12-05T14:12:42.618Z,3.60
2018-12-05T14:22:47.244Z,3.27
2018-12-05T14:32:52.146Z,3.53
2018-12-05T14:42:56.943Z,3.90
2018-12-05T14:53:01.590Z,3.80
2018-12-05T15:03:08.657Z,4.37
2018-12-05T15:13:13.363Z,4.20
2018-12-05T15:23:18.060Z,4.73
2018-12-05T15:33:22.753Z,4.83
2018-12-05T15:43:27.676Z,5.77
2018-12-05T15:53:32.319Z,6.80
2018-12-05T16:03:43.191Z,5.63
2018-12-05T16:13:43.878Z,5.40
2018-12-05T16:23:48.503Z,4.87
2018-12-05T16:33:53.170Z,4.80
2018-12-05T16:43:58.524Z,5.37
2018-12-05T16:54:03.122Z,5.27
2018-12-05T17:04:07.894Z,5.53
2018-12-05T17:14:12.727Z,6.03
2018-12-05T17:24:18.033Z,4.97
2018-12-05T17:34:23.798Z,4.30
2018-12-05T17:44:29.461Z,4.77
2018-12-05T17:54:34.118Z,4.07
2018-12-05T18:04:39.181Z,4.20
2018-12-05T18:14:43.899Z,5.00
2018-12-05T18:24:49.198Z,4.87
2018-12-05T18:34:54.905Z,4.90
2018-12-05T18:44:59.695Z,4.87
2018-12-05T18:55:05.885Z,4.77
2018-12-05T19:05:11.266Z,4.93
2018-12-05T19:15:17.147Z,4.73
2018-12-05T19:25:23.327Z,11.03
2018-12-05T19:35:28.377Z,9.80
2018-12-05T19:45:34.018Z,10.10
2018-12-05T19:55:40.024Z,7.33
2018-12-05T20:05:45.082Z,6.63
2018-12-05T20:15:50.987Z,6.60
2018-12-05T20:25:55.875Z,5.90
2018-12-05T20:36:02.974Z,6.43
2018-12-05T20:46:08.589Z,5.63
2018-12-05T20:56:16.240Z,5.50
2018-12-05T21:06:21.759Z,5.10
2018-12-05T21:16:26.879Z,5.20
2018-12-05T21:26:31.924Z,5.30
2018-12-05T21:36:37.652Z,5.10
2018-12-05T21:46:44.806Z,4.93
2018-12-05T21:56:51.207Z,5.13
2018-12-05T22:06:57.259Z,4.73
2018-12-05T22:17:02.646Z,4.60
2018-12-05T22:27:07.397Z,4.57
2018-12-05T22:37:12.679Z,4.77
2018-12-05T22:47:17.335Z,4.17
2018-12-05T22:57:22.542Z,4.10
2018-12-05T23:07:28.222Z,3.70
2018-12-05T23:17:33.081Z,3.73
2018-12-05T23:27:38.011Z,3.40
2018-12-05T23:37:43.248Z,3.10
2018-12-05T23:47:48.853Z,3.70
2018-12-05T23:57:54.355Z,3.00
